Time;durP1;ratioP1;P1;durP2;ratioP2;P2;SDS_P1;SDS_P2;PMS_P1;PMS_P2;Temp;Humidity;BMP_temperature;BMP_pressure;BME280_temperature;BME280_humidity;BME280_pressure;Samples;Min_cycle;Max_cycle;Signal;HPM_P1;HPM_P2
2022/05/08 00:01:50;;;;;;;3.10;2.20;;;19.30;57.80;;;;;;5092992;28;20239;-68
2022/05/08 00:04:16;;;;;;;3.78;2.50;;;19.30;57.80;;;;;;5094354;28;20203;-69
2022/05/08 00:06:41;;;;;;;4.50;2.20;;;19.30;57.70;;;;;;5094029;28;20170;-71
2022/05/08 00:09:07;;;;;;;3.00;2.70;;;19.30;57.70;;;;;;5093199;28;20551;-71
2022/05/08 00:11:32;;;;;;;3.53;2.53;;;19.30;57.70;;;;;;5094266;28;20166;-73
2022/05/08 00:13:58;;;;;;;3.28;2.78;;;19.30;58.30;;;;;;5093890;28;20201;-72
2022/05/08 00:16:23;;;;;;;4.60;2.78;;;19.30;57.70;;;;;;5092921;28;20196;-71
2022/05/08 00:18:49;;;;;;;3.50;2.50;;;19.30;57.70;;;;;;5093659;28;20624;-71
2022/05/08 00:21:14;;;;;;;3.20;2.70;;;19.20;57.60;;;;;;5093772;28;20541;-71
2022/05/08 00:23:40;;;;;;;3.55;2.70;;;19.20;57.70;;;;;;5092755;28;20589;-71
2022/05/08 00:26:07;;;;;;;4.13;2.97;;;19.20;57.60;;;;;;5094052;28;20186;-70
2022/05/08 00:28:35;;;;;;;3.80;2.70;;;19.20;57.60;;;;;;5093857;28;20181;-72
2022/05/08 00:31:00;;;;;;;2.88;2.45;;;19.20;57.60;;;;;;5093204;28;20217;-71
2022/05/08 00:33:26;;;;;;;3.13;2.70;;;19.20;57.60;;;;;;5093758;28;20166;-70
2022/05/08 00:35:51;;;;;;;5.47;2.60;;;19.20;57.60;;;;;;5093027;28;20177;-71
2022/05/08 00:38:17;;;;;;;2.85;2.65;;;19.20;57.60;;;;;;5093150;28;20663;-70
2022/05/08 00:40:42;;;;;;;3.67;2.63;;;19.20;57.60;;;;;;5093420;28;20170;-70
2022/05/08 00:43:33;;;;;;;3.95;2.72;;;19.20;57.60;;;;;;5092862;28;20186;-71
2022/05/08 00:46:06;;;;;;;3.63;3.10;;;19.20;57.60;;;;;;5093116;28;20253;-70
2022/05/08 00:48:32;;;;;;;4.00;3.45;;;19.20;57.60;;;;;;5093162;28;20174;-72
2022/05/08 00:51:05;;;;;;;3.40;2.85;;;19.20;57.60;;;;;;5092207;28;20495;-71
2022/05/08 00:53:34;;;;;;;3.67;2.80;;;19.10;57.50;;;;;;5093318;28;20197;-71
2022/05/08 00:56:00;;;;;;;3.28;2.60;;;19.20;57.60;;;;;;5092076;28;20180;-72
2022/05/08 00:58:26;;;;;;;3.05;2.85;;;19.20;57.60;;;;;;5092339;28;20178;-71
2022/05/08 01:00:51;;;;;;;3.78;3.13;;;19.10;57.50;;;;;;5092815;28;20312;-70
2022/05/08 01:03:17;;;;;;;3.03;2.72;;;19.10;57.50;;;;;;5093167;28;20174;-70
2022/05/08 01:05:42;;;;;;;4.47;3.00;;;19.10;57.50;;;;;;5092432;28;20170;-71
2022/05/08 01:08:09;;;;;;;4.07;3.30;;;19.10;57.50;;;;;;5093382;28;20176;-72
2022/05/08 01:10:36;;;;;;;3.03;2.63;;;19.10;57.50;;;;;;5092817;28;20304;-73
2022/05/08 01:13:02;;;;;;;3.50;3.15;;;19.10;57.50;;;;;;5092326;28;20173;-73
2022/05/08 01:15:28;;;;;;;3.20;2.90;;;19.10;57.40;;;;;;5093021;28;20176;-72
2022/05/08 01:17:53;;;;;;;3.35;3.05;;;19.10;57.40;;;;;;5092504;28;20253;-72
2022/05/08 01:20:19;;;;;;;3.25;2.80;;;19.10;57.40;;;;;;5092371;28;20177;-72
2022/05/08 01:22:45;;;;;;;3.10;2.80;;;19.10;57.40;;;;;;5092593;28;20286;-71
2022/05/08 01:25:10;;;;;;;3.83;2.95;;;19.10;57.40;;;;;;5092358;28;20536;-72
2022/05/08 01:27:36;;;;;;;3.47;2.97;;;19.00;57.30;;;;;;5091996;28;20173;-72
2022/05/08 01:30:01;;;;;;;3.42;2.95;;;19.10;57.40;;;;;;5092449;28;20296;-71
2022/05/08 01:32:27;;;;;;;3.38;2.65;;;19.00;57.30;;;;;;5091650;28;20291;-71
2022/05/08 01:34:52;;;;;;;4.00;3.08;;;19.10;57.40;;;;;;5092246;28;20177;-70
2022/05/08 01:37:18;;;;;;;5.00;3.20;;;19.00;57.30;;;;;;5092534;28;20189;-70
2022/05/08 01:39:43;;;;;;;3.15;2.88;;;19.10;57.40;;;;;;5091776;28;20178;-71
2022/05/08 01:42:09;;;;;;;4.65;2.85;;;19.00;57.30;;;;;;5092425;28;20178;-71
2022/05/08 01:44:35;;;;;;;3.72;3.00;;;19.00;57.30;;;;;;5092290;28;20652;-72
2022/05/08 01:49:44;;;;;;;3.17;2.70;;;19.10;57.30;;;;;;5092043;28;20220;-72
2022/05/08 01:52:10;;;;;;;2.95;2.60;;;19.10;58.00;;;;;;5092480;28;20174;-71
2022/05/08 01:54:35;;;;;;;2.95;2.75;;;19.00;57.30;;;;;;5091452;28;20173;-72
2022/05/08 01:57:01;;;;;;;3.47;3.15;;;19.00;57.20;;;;;;5092137;28;20173;-72
2022/05/08 01:59:26;;;;;;;3.28;2.75;;;19.00;57.20;;;;;;5092127;28;20182;-71
2022/05/08 02:01:52;;;;;;;5.15;2.92;;;19.00;57.30;;;;;;5091070;28;20217;-71
2022/05/08 02:04:18;;;;;;;4.53;3.47;;;19.00;57.30;;;;;;5091244;28;20190;-71
2022/05/08 02:06:43;;;;;;;3.13;2.83;;;19.00;57.20;;;;;;5090982;28;20256;-72
2022/05/08 02:09:09;;;;;;;3.58;2.97;;;19.00;57.20;;;;;;5090304;28;20660;-72
2022/05/08 02:11:34;;;;;;;3.63;2.97;;;19.00;57.20;;;;;;5091946;28;20252;-73
2022/05/08 02:14:00;;;;;;;3.55;2.80;;;19.00;57.20;;;;;;5091966;28;20173;-73
2022/05/08 02:16:25;;;;;;;2.72;2.42;;;19.00;57.20;;;;;;5091400;28;20210;-72
2022/05/08 02:18:51;;;;;;;4.97;3.08;;;19.00;57.20;;;;;;5091770;28;20634;-72
2022/05/08 02:21:17;;;;;;;5.20;2.92;;;18.90;57.20;;;;;;5092030;28;20219;-74
2022/05/08 02:23:42;;;;;;;5.60;3.05;;;19.00;57.20;;;;;;5091220;28;20197;-72
2022/05/08 02:26:08;;;;;;;3.20;2.78;;;19.00;57.10;;;;;;5092131;28;20205;-72
2022/05/08 02:28:33;;;;;;;3.63;3.05;;;18.90;57.10;;;;;;5091375;28;20644;-72
2022/05/08 02:30:59;;;;;;;3.92;3.05;;;18.90;57.10;;;;;;5091424;28;20213;-70
2022/05/08 02:33:25;;;;;;;4.32;2.60;;;18.90;57.10;;;;;;5092308;28;20177;-71
2022/05/08 02:35:50;;;;;;;4.72;2.88;;;18.90;57.10;;;;;;5090980;28;20570;-71
2022/05/08 02:38:16;;;;;;;5.88;3.15;;;18.90;57.10;;;;;;5092627;28;20536;-71
2022/05/08 02:40:41;;;;;;;4.88;2.80;;;18.90;57.00;;;;;;5095630;28;20274;-72
2022/05/08 02:43:07;;;;;;;6.25;3.13;;;18.90;57.10;;;;;;5095267;28;20243;-71
2022/05/08 02:45:32;;;;;;;6.53;3.22;;;18.90;57.00;;;;;;5096229;28;20180;-71
2022/05/08 02:47:57;;;;;;;3.30;2.53;;;18.90;57.00;;;;;;5095691;28;20185;-72
2022/05/08 02:50:24;;;;;;;3.03;2.58;;;18.90;57.00;;;;;;5094902;28;20516;-72
2022/05/08 02:52:49;;;;;;;3.47;2.97;;;18.90;57.00;;;;;;5095662;28;20189;-72
2022/05/08 03:00:44;;;;;;;3.13;2.38;;;18.80;56.90;;;;;;5094948;28;20706;-70
2022/05/08 03:03:10;;;;;;;3.63;2.58;;;18.90;57.00;;;;;;5095592;28;20174;-71
2022/05/08 03:05:35;;;;;;;3.95;2.83;;;18.90;57.00;;;;;;5094407;28;20178;-71
2022/05/08 03:08:01;;;;;;;3.38;2.67;;;18.90;57.00;;;;;;5095333;28;20186;-72
2022/05/08 03:10:27;;;;;;;3.65;2.80;;;18.80;56.90;;;;;;5095502;28;20300;-74
2022/05/08 03:12:53;;;;;;;3.78;2.78;;;18.90;56.90;;;;;;5094486;28;20221;-73
2022/05/08 03:15:18;;;;;;;4.75;3.00;;;18.80;56.90;;;;;;5095405;28;20667;-74
2022/05/08 03:17:44;;;;;;;4.20;2.70;;;18.80;56.90;;;;;;5094179;28;20662;-72
2022/05/08 03:20:11;;;;;;;4.35;2.95;;;18.80;56.90;;;;;;5095147;28;20600;-72
2022/05/08 03:22:36;;;;;;;4.68;3.08;;;18.80;56.90;;;;;;5094808;28;20653;-73
2022/05/08 03:25:02;;;;;;;5.43;2.88;;;18.80;56.90;;;;;;5094533;28;20181;-72
2022/05/08 03:27:28;;;;;;;4.82;2.67;;;18.80;56.90;;;;;;5095295;28;20223;-71
2022/05/08 03:29:53;;;;;;;2.80;2.50;;;18.80;56.90;;;;;;5094681;28;20217;-71
2022/05/08 03:32:19;;;;;;;4.07;2.40;;;18.80;56.90;;;;;;5094169;28;20174;-71
2022/05/08 03:34:44;;;;;;;3.30;2.92;;;18.80;56.90;;;;;;5094592;28;20576;-72
2022/05/08 03:37:10;;;;;;;3.15;2.40;;;18.80;56.90;;;;;;5094741;28;20174;-70
2022/05/08 03:39:35;;;;;;;4.68;2.83;;;18.80;56.80;;;;;;5093675;28;20261;-71
2022/05/08 03:42:01;;;;;;;5.55;2.55;;;18.80;56.80;;;;;;5094604;28;20174;-70
2022/05/08 03:44:26;;;;;;;4.43;2.47;;;18.80;56.80;;;;;;5094689;28;20173;-72
2022/05/08 03:46:52;;;;;;;4.30;2.63;;;18.70;56.80;;;;;;5093508;28;20589;-72
2022/05/08 03:49:17;;;;;;;4.40;2.30;;;18.80;56.80;;;;;;5094559;28;20206;-71
2022/05/08 03:51:43;;;;;;;3.63;2.97;;;18.80;56.80;;;;;;5093808;28;20170;-73
2022/05/08 03:54:09;;;;;;;4.22;2.42;;;18.70;56.80;;;;;;5093774;28;20263;-71
2022/05/08 03:56:35;;;;;;;4.15;2.67;;;18.70;56.80;;;;;;5094625;28;20281;-72
2022/05/08 03:59:00;;;;;;;3.33;2.40;;;18.80;56.80;;;;;;5094434;28;20178;-69
2022/05/08 04:01:26;;;;;;;4.55;2.47;;;18.70;56.70;;;;;;5093525;28;20236;-70
2022/05/08 04:03:51;;;;;;;3.47;3.05;;;18.70;56.70;;;;;;5093980;28;20184;-72
2022/05/08 04:06:17;;;;;;;4.45;2.40;;;18.70;56.80;;;;;;5094362;28;20166;-72
2022/05/08 04:08:42;;;;;;;4.68;2.50;;;18.70;56.70;;;;;;5093232;28;20550;-74
2022/05/08 04:11:08;;;;;;;4.22;2.70;;;18.70;56.70;;;;;;5094217;28;20573;-72
2022/05/08 04:13:34;;;;;;;4.25;2.67;;;18.70;56.70;;;;;;5094351;28;20698;-73
2022/05/08 04:16:17;;;;;;;4.47;2.30;;;18.70;56.70;;;;;;5092996;28;20589;-74
2022/05/08 04:18:43;;;;;;;4.75;2.78;;;18.70;56.70;;;;;;5093874;28;20180;-72
2022/05/08 04:21:08;;;;;;;3.85;2.58;;;18.70;56.60;;;;;;5093068;28;20273;-73
2022/05/08 04:26:18;;;;;;;5.10;3.03;;;18.70;56.70;;;;;;5094044;28;20173;-71
2022/05/08 04:28:44;;;;;;;3.30;2.50;;;18.70;56.60;;;;;;5091549;28;20615;-73
2022/05/08 04:31:09;;;;;;;3.97;2.35;;;18.70;56.60;;;;;;5093681;28;20209;-71
2022/05/08 04:33:35;;;;;;;6.63;2.88;;;18.70;56.60;;;;;;5093295;28;20181;-71
2022/05/08 04:36:00;;;;;;;3.38;2.53;;;18.70;56.60;;;;;;5093179;28;20205;-71
2022/05/08 04:38:26;;;;;;;3.22;2.10;;;18.70;56.60;;;;;;5093853;28;20216;-72
2022/05/08 04:40:51;;;;;;;5.65;2.70;;;18.70;56.60;;;;;;5093207;28;20178;-71
2022/05/08 04:43:17;;;;;;;5.13;2.58;;;18.70;56.60;;;;;;5092798;28;20177;-71
2022/05/08 04:45:42;;;;;;;5.30;2.35;;;18.70;56.60;;;;;;5093170;28;20173;-72
2022/05/08 04:48:08;;;;;;;4.70;2.55;;;18.70;56.50;;;;;;5093279;28;20635;-71
2022/05/08 04:50:34;;;;;;;4.40;2.60;;;18.70;56.50;;;;;;5092461;28;20304;-73
2022/05/08 04:53:00;;;;;;;5.28;2.45;;;18.70;56.50;;;;;;5093311;28;20189;-72
2022/05/08 04:55:25;;;;;;;3.40;2.33;;;18.70;56.50;;;;;;5093498;28;20636;-72
2022/05/08 04:57:51;;;;;;;3.13;2.33;;;18.70;56.50;;;;;;5092311;28;20177;-72
2022/05/08 05:00:17;;;;;;;3.35;2.40;;;18.70;56.50;;;;;;5092882;28;20320;-70
2022/05/08 05:02:44;;;;;;;3.75;2.53;;;18.70;56.50;;;;;;5091963;28;20223;-72
2022/05/08 05:05:09;;;;;;;4.70;2.55;;;18.70;56.50;;;;;;5092611;28;20269;-71
2022/05/08 05:07:35;;;;;;;4.30;2.10;;;18.70;56.40;;;;;;5092861;28;20194;-72
2022/05/08 05:10:00;;;;;;;5.20;2.58;;;18.70;56.40;;;;;;5092945;28;20213;-75
2022/05/08 05:12:26;;;;;;;4.80;2.70;;;18.70;56.40;;;;;;5092251;28;20166;-74
2022/05/08 05:14:51;;;;;;;3.78;2.42;;;18.70;56.40;;;;;;5092691;28;20176;-74
2022/05/08 05:17:17;;;;;;;3.35;2.20;;;18.70;56.40;;;;;;5092048;28;20166;-72
2022/05/08 05:19:42;;;;;;;2.92;2.25;;;18.70;56.40;;;;;;5092403;28;20181;-73
2022/05/08 05:22:08;;;;;;;5.80;2.95;;;18.70;56.40;;;;;;5092667;28;20617;-72
2022/05/08 05:24:33;;;;;;;3.60;2.03;;;18.70;56.40;;;;;;5092059;28;20182;-73
2022/05/08 05:26:59;;;;;;;4.50;2.47;;;18.70;56.40;;;;;;5092429;28;20173;-71
2022/05/08 05:29:25;;;;;;;5.13;2.53;;;18.70;56.40;;;;;;5092570;28;20330;-71
2022/05/08 05:31:50;;;;;;;3.78;2.33;;;18.70;56.30;;;;;;5091644;28;20589;-71
2022/05/08 05:34:16;;;;;;;5.00;2.45;;;18.70;56.30;;;;;;5092818;28;20170;-71
2022/05/08 05:36:41;;;;;;;3.70;2.22;;;18.70;56.30;;;;;;5092350;28;20263;-72
2022/05/08 05:39:07;;;;;;;4.28;2.25;;;18.70;56.30;;;;;;5091868;28;20610;-71
2022/05/08 05:41:33;;;;;;;4.82;2.45;;;18.70;56.90;;;;;;5092444;28;20177;-71
2022/05/08 05:43:58;;;;;;;4.22;2.08;;;18.70;56.20;;;;;;5092121;28;20178;-71
2022/05/08 05:49:08;;;;;;;6.72;2.63;;;18.70;56.80;;;;;;5092325;28;20219;-71
2022/05/08 05:51:33;;;;;;;4.15;2.00;;;18.70;56.20;;;;;;5092229;28;20174;-72
2022/05/08 05:53:59;;;;;;;3.63;2.17;;;18.70;56.20;;;;;;5091080;28;20656;-72
2022/05/08 05:56:24;;;;;;;4.93;2.22;;;18.70;56.10;;;;;;5092323;28;20193;-73
2022/05/08 05:58:50;;;;;;;3.85;2.15;;;18.70;56.10;;;;;;5091785;28;20176;-71
2022/05/08 06:01:17;;;;;;;5.15;2.53;;;18.80;56.20;;;;;;5091143;28;20222;-71
2022/05/08 06:03:42;;;;;;;8.13;2.78;;;18.80;56.10;;;;;;5091973;28;20315;-71
2022/05/08 06:06:08;;;;;;;5.75;2.25;;;18.80;56.10;;;;;;5092114;28;20169;-71
2022/05/08 06:08:33;;;;;;;6.13;2.40;;;18.70;56.10;;;;;;5091360;28;20498;-74
2022/05/08 06:10:59;;;;;;;4.72;2.47;;;18.80;56.20;;;;;;5091748;28;20221;-73
2022/05/08 06:13:24;;;;;;;4.00;2.20;;;18.80;56.20;;;;;;5094206;28;20173;-73
2022/05/08 06:15:50;;;;;;;5.18;2.58;;;18.80;56.10;;;;;;5097661;28;20188;-72
2022/05/08 06:18:15;;;;;;;3.85;2.10;;;18.80;56.20;;;;;;5098924;28;20196;-72
2022/05/08 06:20:41;;;;;;;5.40;2.15;;;18.80;56.10;;;;;;5097867;28;20170;-73
2022/05/08 06:23:06;;;;;;;3.80;2.10;;;18.80;56.10;;;;;;5098758;28;20177;-72
2022/05/08 06:25:32;;;;;;;4.22;2.35;;;18.80;56.10;;;;;;5098683;28;20170;-73
2022/05/08 06:27:57;;;;;;;5.63;2.25;;;18.80;56.10;;;;;;5097748;28;20661;-71
2022/05/08 06:30:23;;;;;;;4.35;2.17;;;18.80;56.10;;;;;;5098492;28;20258;-71
2022/05/08 06:32:48;;;;;;;3.17;2.10;;;18.80;56.10;;;;;;5098508;28;20201;-71
2022/05/08 06:35:14;;;;;;;4.28;1.83;;;18.90;56.20;;;;;;5098091;28;20253;-70
2022/05/08 06:37:39;;;;;;;4.63;2.50;;;18.80;56.10;;;;;;5098063;28;20263;-72
2022/05/08 06:40:05;;;;;;;4.47;2.17;;;18.90;56.20;;;;;;5098603;28;20654;-71
2022/05/08 06:42:31;;;;;;;4.90;2.28;;;18.90;56.20;;;;;;5097841;28;20177;-71
2022/05/08 06:44:56;;;;;;;5.93;2.25;;;18.90;56.10;;;;;;5098186;28;20178;-71
2022/05/08 06:47:22;;;;;;;2.67;2.00;;;18.90;56.00;;;;;;5098476;28;20181;-71
2022/05/08 06:49:47;;;;;;;4.15;2.15;;;18.90;56.00;;;;;;5097509;28;20197;-72
2022/05/08 06:52:13;;;;;;;6.07;2.60;;;18.90;55.90;;;;;;5098232;28;20169;-71
2022/05/08 06:54:38;;;;;;;4.45;2.30;;;18.90;55.80;;;;;;5098106;28;20197;-72
2022/05/08 06:57:04;;;;;;;2.88;2.00;;;18.90;55.70;;;;;;5097567;28;20667;-72
2022/05/08 07:02:15;;;;;;;4.35;1.88;;;19.00;55.70;;;;;;5098322;28;20224;-71
2022/05/08 07:04:40;;;;;;;4.32;2.63;;;19.00;55.60;;;;;;5097469;28;20561;-72
2022/05/08 07:07:06;;;;;;;2.85;1.83;;;19.00;55.60;;;;;;5098438;28;20593;-71
2022/05/08 07:09:32;;;;;;;4.32;2.45;;;19.00;55.60;;;;;;5098245;28;20209;-75
2022/05/08 07:11:58;;;;;;;3.45;2.30;;;19.00;55.60;;;;;;5097214;28;20173;-73
2022/05/08 07:14:23;;;;;;;3.47;1.70;;;19.00;55.60;;;;;;5098328;28;20177;-74
2022/05/08 07:16:49;;;;;;;4.10;2.17;;;19.00;55.50;;;;;;5097164;28;20194;-71
2022/05/08 07:19:14;;;;;;;3.85;1.80;;;19.00;55.40;;;;;;5098197;28;20654;-71
2022/05/08 07:21:40;;;;;;;2.88;1.65;;;19.00;55.40;;;;;;5097802;28;20177;-72
2022/05/08 07:24:06;;;;;;;5.47;2.15;;;19.10;55.50;;;;;;5097338;28;20172;-71
2022/05/08 07:26:32;;;;;;;5.32;2.47;;;19.10;55.40;;;;;;5093848;28;20209;-72
2022/05/08 07:28:57;;;;;;;3.25;1.70;;;19.10;55.30;;;;;;5094617;28;20194;-70
2022/05/08 07:31:24;;;;;;;4.07;1.88;;;19.10;55.30;;;;;;5094363;28;20633;-70
2022/05/08 07:36:12;;;;;;;3.80;2.10;;;19.10;55.30;;;;;;5094543;28;20230;-71
2022/05/08 07:36:35;;;;;;;3.70;2.30;;;19.10;55.20;;;;;;5094724;28;20315;-71
2022/05/08 07:39:01;;;;;;;3.17;1.88;;;19.20;55.20;;;;;;5093816;28;20641;-70
2022/05/08 07:41:27;;;;;;;4.55;1.85;;;19.20;55.20;;;;;;5094976;28;20672;-70
2022/05/08 07:43:53;;;;;;;2.60;1.98;;;19.20;55.10;;;;;;5094421;28;20178;-70
2022/05/08 07:46:18;;;;;;;6.20;2.22;;;19.20;55.10;;;;;;5093996;28;20647;-71
2022/05/08 07:48:45;;;;;;;4.00;2.00;;;19.20;55.00;;;;;;5094304;28;20178;-71
2022/05/08 07:51:11;;;;;;;3.40;1.88;;;19.30;55.00;;;;;;5094436;28;20214;-71
2022/05/08 07:53:36;;;;;;;3.88;1.90;;;19.30;55.00;;;;;;5093322;28;20185;-71
2022/05/08 07:56:02;;;;;;;3.95;1.77;;;19.30;55.00;;;;;;5094624;28;20185;-70
2022/05/08 07:58:34;;;;;;;2.47;1.88;;;19.30;55.00;;;;;;5094399;28;20173;-70
2022/05/08 08:01:00;;;;;;;3.78;1.80;;;19.30;55.00;;;;;;5093309;28;20251;-67
2022/05/08 08:03:27;;;;;;;3.30;1.60;;;19.30;55.00;;;;;;5094266;28;20246;-69
2022/05/08 08:05:53;;;;;;;4.10;2.28;;;19.40;55.00;;;;;;5093874;28;20544;-71
2022/05/08 08:08:21;;;;;;;3.95;1.67;;;19.40;55.00;;;;;;5093307;28;20172;-71
2022/05/08 08:10:47;;;;;;;3.03;2.05;;;19.40;55.00;;;;;;5093929;28;20283;-73
2022/05/08 08:13:13;;;;;;;4.05;1.98;;;19.40;54.90;;;;;;5093404;28;20170;-71
2022/05/08 08:15:39;;;;;;;2.92;1.77;;;19.40;54.90;;;;;;5093889;28;20178;-72
2022/05/08 08:18:05;;;;;;;3.05;1.73;;;19.40;54.90;;;;;;5093896;28;20201;-73
2022/05/08 08:20:31;;;;;;;5.32;2.15;;;19.40;54.90;;;;;;5093093;28;20206;-71
2022/05/08 08:22:56;;;;;;;3.20;2.22;;;19.40;54.90;;;;;;5093779;28;20210;-71
2022/05/08 08:25:22;;;;;;;3.67;2.17;;;19.40;54.90;;;;;;5093705;28;20642;-71
2022/05/08 08:27:47;;;;;;;3.30;1.95;;;19.50;54.90;;;;;;5092882;28;20182;-71
2022/05/08 08:30:13;;;;;;;3.47;2.13;;;19.50;55.00;;;;;;5093797;28;20209;-72
2022/05/08 08:32:39;;;;;;;3.60;1.92;;;19.50;54.90;;;;;;5093457;28;20273;-71
2022/05/08 08:35:05;;;;;;;3.92;1.70;;;19.50;54.80;;;;;;5092861;28;20181;-71
2022/05/08 08:37:30;;;;;;;3.65;2.33;;;19.50;54.90;;;;;;5093411;28;20182;-70
2022/05/08 08:39:56;;;;;;;3.63;1.77;;;19.50;54.80;;;;;;5093167;28;20173;-70
2022/05/08 08:42:22;;;;;;;3.80;1.98;;;19.60;54.90;;;;;;5092622;28;20170;-70
2022/05/08 08:47:43;;;;;;;3.85;1.70;;;19.60;54.80;;;;;;5093399;28;20185;-72
2022/05/08 08:50:08;;;;;;;3.28;1.50;;;19.60;55.10;;;;;;5091761;28;20225;-71
2022/05/08 08:52:34;;;;;;;3.28;1.85;;;19.60;55.00;;;;;;5092277;28;20170;-72
2022/05/08 08:55:00;;;;;;;2.47;2.00;;;19.70;55.00;;;;;;5092440;28;20182;-72
2022/05/08 08:57:25;;;;;;;4.25;1.98;;;19.60;55.00;;;;;;5093091;28;20216;-74
2022/05/08 08:59:51;;;;;;;3.05;1.83;;;19.70;55.20;;;;;;5092048;28;20189;-77
2022/05/08 09:02:17;;;;;;;3.95;1.90;;;19.70;55.10;;;;;;5093012;28;20189;-78
2022/05/08 09:04:44;;;;;;;3.80;1.52;;;19.70;55.10;;;;;;5093284;28;20186;-75
2022/05/08 09:07:32;;;;;;;3.88;1.90;;;19.70;55.00;;;;;;5093333;28;20174;-72
2022/05/08 09:10:13;;;;;;;7.05;2.10;;;19.70;55.00;;;;;;5092322;28;20210;-73
2022/05/08 09:12:40;;;;;;;5.43;2.10;;;19.70;55.00;;;;;;5092909;28;20181;-72
2022/05/08 09:15:35;;;;;;;3.78;1.80;;;19.70;55.00;;;;;;5092841;28;20632;-73
2022/05/08 09:18:06;;;;;;;4.28;2.15;;;19.80;55.10;;;;;;5079204;28;20186;-72
2022/05/08 09:20:35;;;;;;;4.68;2.42;;;19.80;55.20;;;;;;5092578;28;20174;-72
2022/05/08 09:23:11;;;;;;;5.30;2.20;;;19.80;55.30;;;;;;5092437;28;20636;-73
2022/05/08 09:25:51;;;;;;;2.90;1.90;;;19.80;55.30;;;;;;5091724;28;20272;-73
2022/05/08 09:28:30;;;;;;;6.72;2.05;;;19.90;55.40;;;;;;5092746;28;20275;-74
2022/05/08 09:31:06;;;;;;;3.40;1.63;;;19.90;55.40;;;;;;5091907;28;20221;-76
2022/05/08 09:33:36;;;;;;;4.90;1.88;;;19.90;55.40;;;;;;5092506;28;20265;-76
2022/05/08 09:36:03;;;;;;;3.95;1.85;;;20.00;55.50;;;;;;5092597;28;20192;-75
2022/05/08 09:38:48;;;;;;;2.90;2.10;;;20.00;55.50;;;;;;5091908;28;20186;-73
2022/05/08 09:41:27;;;;;;;4.18;1.73;;;20.00;55.50;;;;;;5092878;28;20177;-75
2022/05/08 09:43:54;;;;;;;2.63;1.58;;;20.00;55.60;;;;;;5092220;28;20182;-75
2022/05/08 09:46:20;;;;;;;2.85;2.13;;;20.00;55.60;;;;;;5092267;28;20500;-73
2022/05/08 09:48:46;;;;;;;2.92;1.92;;;20.10;56.30;;;;;;5091533;28;20174;-72
2022/05/08 09:51:12;;;;;;;2.33;1.67;;;20.10;56.30;;;;;;5092203;28;20308;-72
2022/05/08 09:53:39;;;;;;;3.70;1.95;;;20.10;55.60;;;;;;5091297;28;20174;-72
2022/05/08 09:56:06;;;;;;;2.08;1.55;;;20.10;55.60;;;;;;5092070;28;20234;-76
2022/05/08 09:58:32;;;;;;;3.53;2.13;;;20.10;55.60;;;;;;5091794;28;20197;-76
2022/05/08 10:00:57;;;;;;;3.42;1.92;;;20.10;55.60;;;;;;5091592;28;20264;-76
2022/05/08 10:03:23;;;;;;;3.85;1.95;;;20.10;55.60;;;;;;5092262;28;20621;-76
2022/05/08 10:05:49;;;;;;;3.92;1.92;;;20.20;55.60;;;;;;5091366;28;20711;-76
2022/05/08 10:08:20;;;;;;;3.40;1.92;;;20.20;55.60;;;;;;5092113;28;20534;-73
2022/05/08 10:14:05;;;;;;;3.95;2.10;;;20.20;55.70;;;;;;5090892;28;20223;-72
2022/05/08 10:16:47;;;;;;;3.63;2.08;;;20.20;55.60;;;;;;5091947;28;20170;-72
2022/05/08 10:19:24;;;;;;;2.97;1.73;;;20.20;55.60;;;;;;5092006;28;20223;-71
2022/05/08 10:21:55;;;;;;;4.75;1.75;;;20.20;55.60;;;;;;5091099;28;20181;-76
2022/05/08 10:24:31;;;;;;;3.60;1.67;;;20.30;55.70;;;;;;5092091;28;20173;-75
2022/05/08 10:27:14;;;;;;;2.42;1.40;;;20.30;55.60;;;;;;5090879;28;20552;-73
2022/05/08 10:29:41;;;;;;;4.30;2.28;;;20.30;55.60;;;;;;5091316;28;20286;-73
2022/05/08 10:32:06;;;;;;;6.05;1.88;;;20.30;55.50;;;;;;5092095;28;20360;-74
2022/05/08 10:34:34;;;;;;;3.78;1.88;;;20.30;55.50;;;;;;5091316;28;20585;-70
2022/05/08 10:37:11;;;;;;;4.43;1.88;;;20.40;55.50;;;;;;5091684;28;20208;-69
2022/05/08 10:39:43;;;;;;;1.92;1.40;;;20.40;55.50;;;;;;5091419;28;20205;-69
2022/05/08 10:42:24;;;;;;;3.05;1.77;;;20.40;55.50;;;;;;5090859;28;20177;-69
2022/05/08 10:44:50;;;;;;;5.15;1.92;;;20.50;55.50;;;;;;5091195;28;20601;-69
2022/05/08 10:47:33;;;;;;;2.83;1.88;;;20.40;55.50;;;;;;5091577;28;20177;-69
2022/05/08 10:50:05;;;;;;;3.63;2.10;;;20.50;55.50;;;;;;5090541;28;20250;-70
2022/05/08 10:52:40;;;;;;;3.90;1.33;;;20.50;55.50;;;;;;5091422;28;20178;-70
2022/05/08 10:55:14;;;;;;;3.03;1.83;;;20.50;55.50;;;;;;5091052;28;20178;-69
2022/05/08 10:57:41;;;;;;;5.38;1.90;;;20.50;55.50;;;;;;5091403;28;20177;-71
2022/05/08 11:00:08;;;;;;;4.90;2.00;;;20.50;55.40;;;;;;5091902;28;20264;-76
2022/05/08 11:02:43;;;;;;;7.65;2.03;;;20.50;55.40;;;;;;5095251;28;20269;-78
2022/05/08 11:05:19;;;;;;;2.72;1.60;;;20.50;55.40;;;;;;5095361;28;20188;-73
2022/05/08 11:08:01;;;;;;;2.35;1.50;;;20.50;55.40;;;;;;5095158;28;20203;-72
2022/05/08 11:10:31;;;;;;;4.20;1.70;;;20.50;55.50;;;;;;5094673;28;20221;-72
2022/05/08 11:12:59;;;;;;;4.07;1.85;;;20.50;55.50;;;;;;5095218;28;20189;-73
2022/05/08 11:15:24;;;;;;;4.22;1.88;;;20.50;55.50;;;;;;5095170;28;20174;-72
2022/05/08 11:18:09;;;;;;;7.72;2.00;;;20.50;55.50;;;;;;5093923;28;20355;-72
2022/05/08 11:20:48;;;;;;;3.53;1.60;;;20.50;55.50;;;;;;5094876;28;20636;-72
2022/05/08 11:23:18;;;;;;;2.83;1.40;;;20.50;55.50;;;;;;5094485;28;20184;-72
2022/05/08 11:25:48;;;;;;;3.33;1.90;;;20.50;55.50;;;;;;5094699;28;20174;-73
2022/05/08 11:28:14;;;;;;;2.35;1.60;;;20.50;55.30;;;;;;5094919;28;20182;-73
2022/05/08 11:30:40;;;;;;;3.92;2.00;;;20.50;55.30;;;;;;5094447;28;20548;-77
2022/05/08 11:36:04;;;;;;;5.45;1.48;;;20.60;55.50;;;;;;5096573;28;20603;-76
2022/05/08 11:39:02;;;;;;;5.85;1.83;;;20.60;55.60;;;;;;5094608;28;20289;-73
2022/05/08 11:41:34;;;;;;;3.63;1.50;;;20.60;55.40;;;;;;5060538;28;20181;-73
2022/05/08 11:44:03;;;;;;;2.08;1.50;;;20.60;55.40;;;;;;5094867;28;20185;-73
2022/05/08 11:46:36;;;;;;;2.40;1.42;;;20.60;55.40;;;;;;5094586;28;20201;-73
2022/05/08 11:49:02;;;;;;;2.05;1.60;;;20.60;55.40;;;;;;5094511;28;20173;-74
2022/05/08 11:51:41;;;;;;;2.67;1.60;;;20.60;55.40;;;;;;5092182;28;20218;-73
2022/05/08 11:54:18;;;;;;;2.75;1.40;;;20.70;55.40;;;;;;5094879;28;20174;-74
2022/05/08 11:56:44;;;;;;;3.70;1.70;;;20.70;55.40;;;;;;5093145;28;20248;-77
2022/05/08 11:59:16;;;;;;;3.22;1.40;;;20.70;56.10;;;;;;5093591;28;20708;-77
2022/05/08 12:01:52;;;;;;;4.13;1.90;;;20.70;55.50;;;;;;5093669;28;20225;-78
2022/05/08 12:04:33;;;;;;;2.67;1.60;;;20.70;55.40;;;;;;5094448;28;20205;-75
2022/05/08 12:07:08;;;;;;;6.43;1.60;;;20.80;55.50;;;;;;5093664;28;20640;-74
2022/05/08 12:09:41;;;;;;;5.00;1.70;;;20.70;55.60;;;;;;5094325;28;20280;-74
2022/05/08 12:12:29;;;;;;;3.50;1.70;;;20.80;55.50;;;;;;5093839;28;20185;-74
2022/05/08 12:15:06;;;;;;;2.70;1.55;;;20.80;55.60;;;;;;5094190;28;20173;-74
2022/05/08 12:17:44;;;;;;;2.80;1.50;;;20.80;55.50;;;;;;5094279;28;20181;-74
2022/05/08 12:20:09;;;;;;;2.47;1.63;;;20.80;55.50;;;;;;5093270;28;20174;-74
2022/05/08 12:22:35;;;;;;;2.35;1.30;;;20.80;55.50;;;;;;5093621;28;20174;-75
2022/05/08 12:25:01;;;;;;;2.03;1.40;;;20.90;55.40;;;;;;5094171;28;20260;-77
2022/05/08 12:27:27;;;;;;;2.97;1.80;;;20.90;55.30;;;;;;5093314;28;20238;-77
2022/05/08 12:29:53;;;;;;;4.43;1.63;;;20.90;55.30;;;;;;5093476;28;20210;-71
2022/05/08 12:32:20;;;;;;;8.13;1.80;;;21.00;55.20;;;;;;5093680;28;20174;-69
2022/05/08 12:34:45;;;;;;;4.15;1.42;;;21.00;55.00;;;;;;5092607;28;20205;-72
2022/05/08 12:37:12;;;;;;;3.63;1.88;;;21.00;54.90;;;;;;5094094;28;20169;-70
2022/05/08 12:39:38;;;;;;;2.92;1.42;;;21.10;54.80;;;;;;5093500;28;20170;-72
2022/05/08 12:42:04;;;;;;;4.25;1.60;;;21.10;54.80;;;;;;5092962;28;20177;-71
2022/05/08 12:44:30;;;;;;;2.40;1.40;;;21.10;54.70;;;;;;5093458;28;20542;-71
2022/05/08 12:46:56;;;;;;;1.73;1.33;;;21.10;54.60;;;;;;5093163;28;20184;-71
2022/05/08 12:49:21;;;;;;;4.25;1.42;;;21.20;54.60;;;;;;5092531;28;20166;-72
2022/05/08 12:51:47;;;;;;;3.03;1.40;;;21.20;54.60;;;;;;5093353;28;20540;-72
2022/05/08 12:54:12;;;;;;;3.50;1.38;;;21.20;54.60;;;;;;5093688;28;20181;-71
2022/05/08 12:56:38;;;;;;;2.15;1.33;;;21.20;54.60;;;;;;5092494;28;20170;-71
2022/05/08 13:01:49;;;;;;;2.42;1.17;;;21.20;54.40;;;;;;5092058;28;20252;-69
2022/05/08 13:04:14;;;;;;;2.67;1.52;;;21.30;54.40;;;;;;5093336;28;20197;-69
2022/05/08 13:06:41;;;;;;;2.67;1.58;;;21.30;54.30;;;;;;5093214;28;20629;-72
2022/05/08 13:09:06;;;;;;;4.80;1.38;;;21.40;54.40;;;;;;5092659;28;20189;-72
2022/05/08 13:11:32;;;;;;;3.05;1.40;;;21.40;54.30;;;;;;5093246;28;20217;-73
2022/05/08 13:13:58;;;;;;;3.42;1.40;;;21.40;54.30;;;;;;5092883;28;20672;-72
2022/05/08 13:16:23;;;;;;;3.75;1.70;;;21.40;54.20;;;;;;5092046;28;20652;-72
2022/05/08 13:18:49;;;;;;;2.67;1.92;;;21.50;54.30;;;;;;5092403;28;20514;-73